Time;durP1;ratioP1;P1;durP2;ratioP2;P2;SDS_P1;SDS_P2;PMS_P1;PMS_P2;Temp;Humidity;BMP_temperature;BMP_pressure;BME280_temperature;BME280_humidity;BME280_pressure;Samples;Min_cycle;Max_cycle;Signal;HPM_P1;HPM_P2
2021/03/07 00:00:26;;;;;;;2.23;1.97;;;;;;;-2.37;100.00;100247.84;3896821;74;396100;-74
2021/03/07 00:05:47;;;;;;;1.07;0.87;;;;;;;-2.30;100.00;100234.82;3898623;74;383538;-74
2021/03/07 00:11:09;;;;;;;4.37;2.90;;;;;;;-2.31;100.00;100236.47;3896404;74;396107;-76
2021/03/07 00:16:30;;;;;;;9.10;3.43;;;;;;;-2.50;100.00;100241.55;3898044;75;400280;-74
2021/03/07 00:21:51;;;;;;;1.50;1.40;;;;;;;-2.48;100.00;100229.91;3898117;75;389778;-74
2021/03/07 00:27:12;;;;;;;1.83;1.67;;;;;;;-2.69;100.00;100223.16;3897576;75;396098;-74
2021/03/07 00:32:34;;;;;;;1.60;1.50;;;;;;;-2.80;100.00;100215.73;3898306;74;385622;-74
2021/03/07 00:37:55;;;;;;;4.03;3.67;;;;;;;-2.84;100.00;100215.24;3897571;74;396341;-74
2021/03/07 00:43:16;;;;;;;5.47;3.57;;;;;;;-2.90;100.00;100211.79;3897579;74;396379;-73
2021/03/07 00:48:37;;;;;;;6.67;2.70;;;;;;;-2.99;100.00;100209.45;3899242;74;396110;-74
2021/03/07 00:53:58;;;;;;;3.23;3.03;;;;;;;-3.12;100.00;100205.27;3900290;74;396306;-74
2021/03/07 00:59:20;;;;;;;2.50;2.23;;;;;;;-3.17;100.00;100187.02;3900018;74;396109;-73
2021/03/07 01:04:41;;;;;;;2.30;2.10;;;;;;;-3.25;100.00;100185.77;3900209;74;396124;-74
2021/03/07 01:10:04;;;;;;;1.63;1.40;;;;;;;-3.22;100.00;100170.38;3900538;74;396096;-74
2021/03/07 01:15:28;;;;;;;2.40;1.37;;;;;;;-3.23;100.00;100151.84;3900060;74;396114;-73
2021/03/07 01:20:49;;;;;;;1.40;1.30;;;;;;;-3.27;100.00;100143.53;3893618;74;395029;-74
2021/03/07 01:26:12;;;;;;;1.30;0.90;;;;;;;-3.30;100.00;100127.16;3901038;74;394011;-74
2021/03/07 01:31:33;;;;;;;1.40;1.30;;;;;;;-3.37;100.00;100124.00;3901111;74;383577;-74
2021/03/07 01:36:54;;;;;;;3.43;1.70;;;;;;;-3.41;100.00;100111.67;3900539;74;396122;-74
2021/03/07 01:42:16;;;;;;;4.60;2.57;;;;;;;-3.29;100.00;100104.56;3900063;74;396037;-74
2021/03/07 01:47:40;;;;;;;1.83;1.70;;;;;;;-3.43;100.00;100088.28;3900425;74;392153;-74
2021/03/07 01:53:02;;;;;;;1.50;1.40;;;;;;;-3.48;100.00;100077.58;3900281;74;395128;-74
2021/03/07 01:58:32;;;;;;;4.30;1.90;;;;;;;-3.60;100.00;100065.05;3899333;75;396496;-74
2021/03/07 02:03:54;;;;;;;1.17;0.90;;;;;;;-3.65;100.00;100050.32;3897422;74;472093;-74
2021/03/07 02:09:17;;;;;;;2.50;2.30;;;;;;;-3.59;100.00;100037.08;3896524;74;456556;-74
2021/03/07 02:14:40;;;;;;;0.97;0.87;;;;;;;-3.26;100.00;100023.26;3897847;74;457539;-73
2021/03/07 02:20:01;;;;;;;15.07;1.70;;;;;;;-3.26;100.00;100023.26;3900542;74;396096;-74
2021/03/07 02:25:23;;;;;;;1.90;1.80;;;;;;;-3.40;100.00;100037.15;3896864;75;455475;-75
2021/03/07 02:30:45;;;;;;;4.20;3.33;;;;;;;-3.70;100.00;100028.84;3900081;75;396081;-74
2021/03/07 02:36:12;;;;;;;5.43;3.33;;;;;;;-3.70;100.00;100028.84;3900461;75;389818;-73
2021/03/07 02:41:35;;;;;;;2.57;1.57;;;;;;;-3.73;100.00;100034.80;3897387;74;457612;-73
2021/03/07 02:46:56;;;;;;;1.30;1.03;;;;;;;-3.46;100.00;100028.88;3897170;74;457596;-73
2021/03/07 02:52:18;;;;;;;0.90;0.63;;;;;;;-3.68;100.00;100020.52;3898324;74;456545;-74
2021/03/07 02:57:42;;;;;;;1.83;1.73;;;;;;;-3.80;100.00;100018.21;3896772;74;475244;-75
2021/03/07 03:03:11;;;;;;;4.30;0.87;;;;;;;-3.67;100.00;100016.19;3897448;74;481503;-74
2021/03/07 03:08:33;;;;;;;1.77;1.67;;;;;;;-3.75;100.00;100011.43;3897565;75;456565;-74
2021/03/07 03:13:55;;;;;;;1.10;1.00;;;;;;;-3.70;100.00;100007.34;3897567;74;456497;-74
2021/03/07 03:19:17;;;;;;;0.90;0.70;;;;;;;-3.75;100.00;100006.05;3898276;74;453426;-74
2021/03/07 03:24:39;;;;;;;5.07;4.17;;;;;;;-3.87;100.00;100008.31;3897396;74;451294;-74
2021/03/07 03:30:02;;;;;;;1.20;1.10;;;;;;;-3.92;100.00;100008.37;3897584;74;457617;-74
2021/03/07 03:35:23;;;;;;;2.20;1.33;;;;;;;-4.00;100.00;100010.06;3897373;74;455414;-73
2021/03/07 03:40:48;;;;;;;9.30;2.27;;;;;;;-4.06;100.00;99996.42;3897474;74;456520;-74
2021/03/07 03:46:10;;;;;;;1.40;1.13;;;;;;;-4.27;100.00;99994.97;3896922;74;481463;-74
2021/03/07 03:51:38;;;;;;;1.87;1.33;;;;;;;-4.37;100.00;99997.20;3896914;74;456595;-74
2021/03/07 03:57:00;;;;;;;1.83;1.73;;;;;;;-4.37;100.00;99997.76;3896727;74;456591;-74
2021/03/07 04:02:21;;;;;;;0.97;0.77;;;;;;;-4.15;100.00;99994.87;3898049;74;457584;-74
2021/03/07 04:07:44;;;;;;;2.80;2.60;;;;;;;-4.38;100.00;99995.59;3897317;74;453428;-73
2021/03/07 04:13:07;;;;;;;2.40;2.20;;;;;;;-4.52;100.00;99999.19;3896618;74;481494;-74
2021/03/07 04:18:29;;;;;;;1.90;1.70;;;;;;;-4.60;100.00;99991.73;3897491;74;457857;-74
2021/03/07 04:23:50;;;;;;;1.87;1.73;;;;;;;-4.44;100.00;99989.22;3897125;74;457602;-74
2021/03/07 04:29:12;;;;;;;2.00;1.83;;;;;;;-4.44;100.00;100001.30;3897224;74;457800;-73
2021/03/07 04:34:35;;;;;;;1.20;1.10;;;;;;;-4.47;100.00;100000.51;3897802;75;457589;-73
2021/03/07 04:39:57;;;;;;;1.10;1.00;;;;;;;-4.51;100.00;99996.77;3897671;75;455789;-73
2021/03/07 04:45:18;;;;;;;2.83;1.87;;;;;;;-4.61;100.00;100000.88;3896802;75;455558;-73
2021/03/07 04:50:40;;;;;;;0.80;0.57;;;;;;;-4.38;100.00;99994.25;3898219;74;457595;-73
2021/03/07 04:56:01;;;;;;;1.07;0.97;;;;;;;-4.64;100.00;100002.22;3897762;74;451642;-73
2021/03/07 05:01:22;;;;;;;1.10;0.97;;;;;;;-4.85;100.00;99995.13;3897585;74;455507;-73
2021/03/07 05:06:44;;;;;;;0.80;0.50;;;;;;;-4.95;100.00;99997.33;3898343;75;453411;-73
2021/03/07 05:12:05;;;;;;;3.43;1.67;;;;;;;-5.02;100.00;99992.81;3897233;74;475281;-74
2021/03/07 05:17:27;;;;;;;1.00;0.87;;;;;;;-5.13;100.00;99993.93;3897946;75;456586;-74
2021/03/07 05:22:48;;;;;;;3.30;1.73;;;;;;;-5.18;100.00;99989.12;3897327;74;453656;-74
2021/03/07 05:28:10;;;;;;;1.07;0.97;;;;;;;-5.27;100.00;99990.77;3898078;74;456584;-75
2021/03/07 05:33:32;;;;;;;1.83;1.73;;;;;;;-5.32;100.00;99987.56;3897181;75;456827;-73
2021/03/07 05:38:54;;;;;;;4.20;2.30;;;;;;;-5.33;100.00;99980.59;3897583;74;457824;-73
2021/03/07 05:44:16;;;;;;;0.90;0.73;;;;;;;-5.40;100.00;99986.80;3898113;74;457659;-73
2021/03/07 05:49:37;;;;;;;0.97;0.87;;;;;;;-5.25;100.00;99981.37;3896787;74;451288;-73
2021/03/07 05:54:58;;;;;;;1.77;1.67;;;;;;;-5.25;100.00;99987.28;3901535;73;451282;-73
2021/03/07 06:00:20;;;;;;;1.43;1.33;;;;;;;-5.38;100.00;99984.66;3874910;74;457796;-73
2021/03/07 06:05:42;;;;;;;2.40;2.20;;;;;;;-5.27;100.00;99979.52;3901910;75;457651;-73
2021/03/07 06:11:03;;;;;;;1.37;0.90;;;;;;;-5.09;100.00;99988.30;3876806;74;457620;-73
2021/03/07 06:16:24;;;;;;;4.60;2.10;;;;;;;-5.09;100.00;99990.98;3901198;74;453462;-74
2021/03/07 06:21:45;;;;;;;2.80;2.20;;;;;;;-5.00;100.00;99987.95;3876488;74;457625;-74
2021/03/07 06:27:12;;;;;;;3.37;1.17;;;;;;;-5.03;100.00;99988.52;3902072;73;457972;-73
2021/03/07 06:32:35;;;;;;;0.80;0.50;;;;;;;-4.83;100.00;99988.94;3876313;74;457563;-73
2021/03/07 06:38:01;;;;;;;1.70;1.00;;;;;;;-4.75;100.00;99974.39;3900451;74;451343;-74
2021/03/07 06:43:30;;;;;;;1.47;1.13;;;;;;;-4.51;100.00;99980.66;3899729;73;456820;-73
2021/03/07 06:48:50;;;;;;;0.97;0.87;;;;;;;-4.42;100.00;99967.72;3875747;74;455550;-73
2021/03/07 06:54:21;;;;;;;2.33;2.23;;;;;;;-4.09;100.00;99970.11;3892742;73;475254;-73
2021/03/07 06:59:45;;;;;;;7.97;4.27;;;;;;;-3.76;100.00;99960.66;3897717;74;457599;-74
2021/03/07 07:05:07;;;;;;;1.73;1.63;;;;;;;-3.46;100.00;99965.68;3898051;73;457588;-74
2021/03/07 07:10:28;;;;;;;1.90;1.80;;;;;;;-3.16;100.00;99967.47;3896752;75;456519;-74
2021/03/07 07:15:57;;;;;;;6.33;2.60;;;;;;;-2.81;100.00;99968.31;3896864;74;481471;-73
2021/03/07 07:21:19;;;;;;;5.13;1.23;;;;;;;-2.46;100.00;99973.97;3897091;74;481454;-74
2021/03/07 07:26:40;;;;;;;2.23;1.13;;;;;;;-2.04;100.00;99963.86;3900533;75;393947;-74
2021/03/07 07:32:19;;;;;;;1.40;1.30;;;;;;;-1.68;100.00;99955.36;3900558;74;391880;-74
2021/03/07 07:37:59;;;;;;;3.93;2.17;;;;;;;-1.23;100.00;99957.18;3900489;74;396098;-75
2021/03/07 07:43:20;;;;;;;0.90;0.57;;;;;;;-0.88;100.00;99946.42;3900653;74;383573;-75
2021/03/07 07:48:42;;;;;;;1.50;1.40;;;;;;;-0.36;100.00;99953.83;3900867;74;392228;-75
2021/03/07 07:54:04;;;;;;;1.67;1.23;;;;;;;0.12;100.00;99946.13;3900374;73;396109;-74
2021/03/07 07:59:28;;;;;;;9.33;2.40;;;;;;;0.41;100.00;99951.30;3900921;74;394203;-74
2021/03/07 08:04:49;;;;;;;3.30;1.67;;;;;;;0.82;100.00;99945.78;3900071;74;396077;-74
2021/03/07 08:10:14;;;;;;;3.77;1.80;;;;;;;1.29;95.21;99953.06;3900776;74;391849;-74
2021/03/07 08:15:44;;;;;;;5.53;2.73;;;;;;;1.70;86.31;99949.29;3899420;74;396086;-72
2021/03/07 08:21:05;;;;;;;2.03;1.63;;;;;;;2.16;84.05;99945.33;3900696;74;394185;-72
2021/03/07 08:26:30;;;;;;;2.17;1.80;;;;;;;2.50;79.65;99941.36;3900333;74;393987;-75
2021/03/07 08:31:51;;;;;;;1.17;1.03;;;;;;;2.96;78.18;99935.06;3875784;74;392997;-75
2021/03/07 08:37:15;;;;;;;2.53;1.77;;;;;;;3.51;79.46;99926.92;3885962;74;396152;-72
2021/03/07 08:42:37;;;;;;;1.37;1.27;;;;;;;3.62;76.99;99925.41;3887309;74;391948;-72
2021/03/07 08:48:01;;;;;;;2.20;2.10;;;;;;;4.09;66.29;99909.80;3869764;74;396074;-72
2021/03/07 08:53:31;;;;;;;1.30;1.00;;;;;;;4.59;62.81;99915.78;3892433;74;391889;-73
2021/03/07 08:58:53;;;;;;;3.77;2.70;;;;;;;5.38;59.67;99907.19;3898887;74;396078;-72
2021/03/07 09:04:14;;;;;;;1.20;1.10;;;;;;;5.49;58.09;99913.77;3880396;74;391877;-72
2021/03/07 09:09:38;;;;;;;3.73;2.23;;;;;;;6.18;57.01;99911.66;3887149;74;396100;-72
2021/03/07 09:15:02;;;;;;;3.17;2.73;;;;;;;6.81;54.54;99904.50;3880336;74;396107;-75
2021/03/07 09:20:25;;;;;;;3.57;2.10;;;;;;;7.53;49.18;99894.21;3880142;74;397063;-73
2021/03/07 09:25:53;;;;;;;7.73;2.97;;;;;;;8.19;50.60;99881.86;3902913;73;395030;-74
2021/03/07 09:31:25;;;;;;;3.33;2.70;;;;;;;8.48;44.91;99870.25;3879077;74;397030;-74
2021/03/07 09:36:46;;;;;;;6.50;2.50;;;;;;;9.30;45.48;99867.78;3904454;73;397309;-74
2021/03/07 09:42:10;;;;;;;5.03;2.80;;;;;;;9.77;43.16;99855.83;3904166;75;397050;-73
2021/03/07 09:47:31;;;;;;;2.53;2.23;;;;;;;10.19;40.75;99858.27;3879003;74;398100;-74
2021/03/07 09:52:54;;;;;;;4.07;3.00;;;;;;;10.08;40.55;99856.80;3899663;73;395950;-74
2021/03/07 09:58:15;;;;;;;2.00;1.80;;;;;;;10.86;39.90;99850.82;3886734;74;398133;-74
2021/03/07 10:03:36;;;;;;;3.43;2.70;;;;;;;11.27;36.21;99850.29;3871023;74;397041;-74
2021/03/07 10:09:07;;;;;;;4.10;2.77;;;;;;;11.66;36.42;99847.97;3885790;74;397047;-74
2021/03/07 10:14:31;;;;;;;7.07;4.03;;;;;;;12.30;33.60;99837.30;3886949;74;386699;-74
2021/03/07 10:19:52;;;;;;;2.53;2.33;;;;;;;12.18;32.94;99830.19;3885523;74;397096;-74
2021/03/07 10:25:37;;;;;;;8.40;3.87;;;;;;;12.43;35.21;99820.55;3885832;74;397304;-74
2021/03/07 10:31:12;;;;;;;4.13;2.10;;;;;;;12.09;36.80;99818.73;3886548;74;397320;-74
2021/03/07 10:36:41;;;;;;;3.07;2.80;;;;;;;12.91;35.37;99809.50;3885218;74;397144;-73
2021/03/07 10:42:10;;;;;;;2.97;2.77;;;;;;;13.54;34.44;99805.16;3885580;74;396344;-74
2021/03/07 10:47:32;;;;;;;4.77;3.20;;;;;;;13.91;33.53;99792.34;3886137;74;397043;-74
2021/03/07 10:52:53;;;;;;;3.60;2.50;;;;;;;13.16;32.81;99785.38;3885387;74;397042;-73
2021/03/07 10:58:14;;;;;;;2.30;1.63;;;;;;;12.72;31.87;99780.89;3886934;74;394952;-74
2021/03/07 11:03:36;;;;;;;2.60;2.40;;;;;;;13.30;30.72;99763.22;3885709;74;397065;-74
2021/03/07 11:08:56;;;;;;;3.17;2.07;;;;;;;14.38;26.79;99750.13;3885597;74;397075;-74
2021/03/07 11:14:18;;;;;;;3.50;2.27;;;;;;;14.19;27.07;99741.00;3884178;74;397068;-74
2021/03/07 11:19:39;;;;;;;3.67;2.43;;;;;;;14.59;26.20;99742.42;3885853;74;396310;-74
2021/03/07 11:25:00;;;;;;;4.30;2.30;;;;;;;15.16;27.46;99726.77;3885584;74;396106;-74
2021/03/07 11:30:22;;;;;;;3.60;2.20;;;;;;;14.67;27.46;99727.92;3886807;74;396282;-74
2021/03/07 11:35:43;;;;;;;3.00;1.60;;;;;;;15.36;26.64;99711.89;3886468;74;396550;-74
2021/03/07 11:41:04;;;;;;;3.90;2.50;;;;;;;15.43;25.49;99699.31;3742911;77;396448;-74
2021/03/07 11:46:25;;;;;;;3.83;2.53;;;;;;;15.22;26.79;99691.87;3885257;74;396124;-74
2021/03/07 11:51:46;;;;;;;4.13;2.50;;;;;;;15.67;26.17;99689.86;3885527;74;396286;-74
2021/03/07 11:57:08;;;;;;;6.97;2.80;;;;;;;16.79;25.84;99672.92;3925712;73;396073;-74
2021/03/07 12:02:29;;;;;;;2.90;2.27;;;;;;;16.24;24.68;99657.23;3907807;74;396172;-76
2021/03/07 12:07:50;;;;;;;4.97;2.73;;;;;;;15.55;24.55;99646.66;3906770;73;396089;-75
2021/03/07 12:13:11;;;;;;;14.57;3.13;;;;;;;16.14;23.91;99631.23;3906735;73;396335;-74
2021/03/07 12:18:32;;;;;;;4.50;2.00;;;;;;;16.00;25.83;99618.99;3906782;74;396082;-74
2021/03/07 12:23:53;;;;;;;5.90;2.90;;;;;;;16.33;23.96;99612.48;3906472;73;396329;-75
2021/03/07 12:29:14;;;;;;;2.23;2.03;;;;;;;15.99;24.65;99604.16;3906465;74;396077;-74
2021/03/07 12:34:36;;;;;;;3.80;2.70;;;;;;;16.14;25.71;99593.75;3906561;73;396322;-75
2021/03/07 12:39:57;;;;;;;3.03;2.00;;;;;;;16.80;24.29;99587.55;3906838;74;396129;-74
2021/03/07 12:45:18;;;;;;;4.90;2.20;;;;;;;15.63;25.14;99579.59;3906915;73;396106;-74
2021/03/07 12:50:40;;;;;;;2.63;2.20;;;;;;;15.57;25.39;99567.98;3906850;74;397036;-74
2021/03/07 12:56:01;;;;;;;3.53;2.37;;;;;;;13.42;26.91;99570.70;3902787;74;397071;-75
2021/03/07 13:01:21;;;;;;;5.10;3.87;;;;;;;13.65;26.81;99555.09;3897548;74;396372;-74
2021/03/07 13:06:43;;;;;;;4.10;2.10;;;;;;;16.10;24.77;99544.47;3897666;75;396383;-74
2021/03/07 13:12:05;;;;;;;4.90;3.00;;;;;;;15.14;25.05;99523.48;3896428;74;396146;-73
2021/03/07 13:17:26;;;;;;;3.80;2.50;;;;;;;13.63;24.60;99519.38;3888795;74;396325;-74
2021/03/07 13:22:47;;;;;;;3.20;2.17;;;;;;;15.18;25.15;99507.57;3881833;75;396294;-74
2021/03/07 13:28:09;;;;;;;2.80;1.90;;;;;;;15.88;22.42;99503.66;3886645;75;396367;-75
2021/03/07 13:33:30;;;;;;;2.90;2.53;;;;;;;16.46;23.78;99499.55;3882240;75;396314;-73
2021/03/07 13:38:51;;;;;;;2.10;2.00;;;;;;;16.85;22.03;99493.34;3871822;75;396086;-74
2021/03/07 13:44:13;;;;;;;7.37;3.07;;;;;;;12.76;25.17;99489.03;3895417;75;397066;-74
2021/03/07 13:49:34;;;;;;;3.10;2.90;;;;;;;14.08;25.41;99484.33;3891893;75;396366;-74
2021/03/07 13:54:55;;;;;;;3.60;1.80;;;;;;;16.09;24.32;99464.39;3886881;74;394003;-74
2021/03/07 14:00:16;;;;;;;4.97;2.17;;;;;;;16.39;22.81;99458.05;3881588;74;393978;-74
2021/03/07 14:05:38;;;;;;;2.67;2.20;;;;;;;17.13;22.54;99455.14;3881402;75;396324;-74
2021/03/07 14:10:59;;;;;;;2.80;2.40;;;;;;;15.13;21.61;99458.79;3881264;75;396096;-74
2021/03/07 14:16:20;;;;;;;2.27;2.07;;;;;;;14.38;22.71;99450.59;3873372;74;396318;-74
2021/03/07 14:21:41;;;;;;;1.90;1.67;;;;;;;15.59;23.80;99448.48;3710338;78;393989;-74
2021/03/07 14:27:03;;;;;;;1.93;1.80;;;;;;;16.65;20.79;99437.64;3778315;76;396090;-74
2021/03/07 14:32:26;;;;;;;2.60;1.60;;;;;;;15.44;20.49;99437.48;3800044;76;396108;-74
2021/03/07 14:37:47;;;;;;;3.00;2.60;;;;;;;15.43;22.19;99426.81;3809722;77;396111;-74
2021/03/07 14:43:09;;;;;;;1.40;1.23;;;;;;;14.10;21.61;99436.30;3804466;77;393349;-75
2021/03/07 14:48:30;;;;;;;3.47;1.87;;;;;;;15.08;23.41;99423.84;3801835;77;392927;-74
2021/03/07 14:53:51;;;;;;;3.20;2.47;;;;;;;13.14;25.89;99420.94;3801801;77;396336;-73
2021/03/07 14:59:12;;;;;;;4.43;2.37;;;;;;;14.95;23.63;99402.06;3778675;77;393373;-74
2021/03/07 15:04:34;;;;;;;4.50;2.77;;;;;;;12.46;25.47;99406.61;3775440;78;397016;-74
2021/03/07 15:09:55;;;;;;;3.33;2.57;;;;;;;11.18;28.19;99396.83;3763154;78;397035;-74
2021/03/07 15:15:17;;;;;;;1.73;1.63;;;;;;;11.19;29.65;99382.66;3763738;77;396406;-74
2021/03/07 15:20:38;;;;;;;3.93;2.17;;;;;;;12.64;27.53;99372.78;3777422;77;395965;-74
2021/03/07 15:26:00;;;;;;;3.47;2.33;;;;;;;12.27;27.21;99366.34;3801652;74;397058;-73
2021/03/07 15:31:21;;;;;;;4.23;3.10;;;;;;;13.14;27.07;99360.16;3799432;76;397034;-74
2021/03/07 15:36:42;;;;;;;3.23;1.43;;;;;;;13.53;26.75;99356.58;3799764;77;394239;-75
2021/03/07 15:42:03;;;;;;;2.43;2.13;;;;;;;11.20;29.14;99353.17;3799357;77;397282;-75
2021/03/07 15:47:24;;;;;;;7.10;2.67;;;;;;;11.88;29.38;99342.91;3799531;77;397306;-74
2021/03/07 15:52:46;;;;;;;1.70;1.40;;;;;;;13.42;28.26;99332.22;3799553;76;394926;-75
2021/03/07 15:58:07;;;;;;;3.03;2.40;;;;;;;14.19;26.56;99325.13;3804036;77;396999;-75
2021/03/07 16:03:28;;;;;;;2.63;2.13;;;;;;;13.73;27.01;99320.80;3812391;76;396089;-74
2021/03/07 16:08:49;;;;;;;3.90;2.80;;;;;;;12.91;28.01;99323.48;3812209;76;397338;-74
2021/03/07 16:14:10;;;;;;;3.90;3.10;;;;;;;12.14;30.14;99326.02;3812394;76;397021;-74
2021/03/07 16:19:32;;;;;;;2.33;2.13;;;;;;;13.07;28.83;99322.33;3814392;74;397013;-75
2021/03/07 16:24:53;;;;;;;2.70;1.73;;;;;;;11.15;31.28;99323.27;3812622;76;396040;-75
2021/03/07 16:30:15;;;;;;;1.97;1.77;;;;;;;12.37;29.20;99309.70;3812707;76;395968;-75
2021/03/07 16:35:36;;;;;;;3.53;2.30;;;;;;;11.04;31.32;99317.59;3812555;76;396107;-74
2021/03/07 16:40:57;;;;;;;3.40;3.10;;;;;;;10.74;31.99;99315.27;3812350;76;397021;-74
2021/03/07 16:46:19;;;;;;;2.67;1.93;;;;;;;10.23;33.13;99310.57;3812450;76;397038;-75
2021/03/07 16:51:40;;;;;;;2.50;2.07;;;;;;;9.82;34.04;99312.80;3812435;76;397011;-76
2021/03/07 16:57:01;;;;;;;1.83;1.40;;;;;;;9.65;34.31;99315.50;3812736;75;392962;-75
2021/03/07 17:02:23;;;;;;;7.07;2.17;;;;;;;9.43;34.79;99310.30;3812890;77;394199;-75
2021/03/07 17:07:44;;;;;;;3.07;1.97;;;;;;;9.18;36.07;99319.01;3813903;74;397024;-74
2021/03/07 17:13:05;;;;;;;4.70;2.80;;;;;;;8.79;39.57;99320.16;3814107;74;396292;-74
2021/03/07 17:18:26;;;;;;;8.93;4.60;;;;;;;8.11;40.23;99321.11;3813002;76;388846;-74
2021/03/07 17:23:48;;;;;;;4.27;2.50;;;;;;;7.88;41.46;99319.69;3814225;74;396308;-75
2021/03/07 17:29:09;;;;;;;5.20;3.77;;;;;;;7.41;43.33;99328.56;3812448;76;397057;-75
2021/03/07 17:34:30;;;;;;;2.80;2.60;;;;;;;7.01;45.89;99330.35;3812608;76;396365;-75
2021/03/07 17:39:52;;;;;;;6.13;3.27;;;;;;;6.52;46.49;99330.98;3812177;77;397052;-75
2021/03/07 17:45:13;;;;;;;5.63;2.40;;;;;;;6.21;47.38;99339.22;3812488;76;396084;-75
2021/03/07 17:50:34;;;;;;;2.23;2.13;;;;;;;5.91;48.27;99339.08;3812572;76;395033;-75
2021/03/07 17:55:56;;;;;;;4.10;2.80;;;;;;;5.63;49.29;99352.73;3812665;76;397121;-75
2021/03/07 18:01:17;;;;;;;3.07;2.80;;;;;;;5.48;48.94;99356.92;3817163;76;396123;-75
2021/03/07 18:06:39;;;;;;;3.83;2.30;;;;;;;5.28;52.90;99360.77;3820743;76;396127;-76
2021/03/07 18:12:00;;;;;;;4.63;2.83;;;;;;;5.02;52.67;99359.22;3817517;76;396108;-75
2021/03/07 18:17:22;;;;;;;3.90;2.50;;;;;;;4.85;56.49;99367.79;3817399;76;396344;-75
2021/03/07 18:22:43;;;;;;;2.07;1.97;;;;;;;4.55;57.08;99369.41;3817296;76;393997;-75
2021/03/07 18:28:05;;;;;;;1.87;1.27;;;;;;;4.26;57.17;99372.59;3817650;76;396072;-74
2021/03/07 18:33:26;;;;;;;1.53;1.30;;;;;;;3.96;55.95;99376.84;3817348;76;396321;-74
2021/03/07 18:38:47;;;;;;;3.20;1.60;;;;;;;3.38;58.23;99378.71;3818709;74;394048;-75
2021/03/07 18:44:09;;;;;;;3.60;1.63;;;;;;;3.24;59.25;99379.64;3817524;76;396316;-74
2021/03/07 18:49:30;;;;;;;1.60;1.50;;;;;;;3.08;61.09;99384.20;3817763;76;391867;-75
2021/03/07 18:54:51;;;;;;;1.90;1.80;;;;;;;2.79;61.91;99385.03;3817527;76;396077;-74
2021/03/07 19:00:13;;;;;;;2.33;2.13;;;;;;;2.52;68.05;99404.17;3817868;74;396331;-75
2021/03/07 19:05:34;;;;;;;1.03;0.80;;;;;;;2.40;70.02;99398.75;3819338;74;391946;-74
2021/03/07 19:10:55;;;;;;;4.30;2.13;;;;;;;2.70;68.29;99413.69;3817482;76;394994;-74
2021/03/07 19:16:16;;;;;;;3.90;2.10;;;;;;;2.80;71.58;99414.59;3818330;76;396321;-74
2021/03/07 19:21:38;;;;;;;6.90;2.90;;;;;;;3.02;72.82;99414.70;3818891;74;396049;-75
2021/03/07 19:27:00;;;;;;;4.73;2.97;;;;;;;3.01;74.05;99423.41;3817898;76;396040;-75
2021/03/07 19:32:22;;;;;;;11.90;4.30;;;;;;;2.92;75.25;99427.38;3817489;76;390838;-74
2021/03/07 19:37:43;;;;;;;7.47;2.40;;;;;;;2.83;75.65;99419.33;3817755;76;396111;-75
2021/03/07 19:43:05;;;;;;;1.50;1.40;;;;;;;2.91;75.43;99421.72;3817927;76;394293;-75
2021/03/07 19:48:26;;;;;;;1.80;1.70;;;;;;;2.71;75.55;99429.41;3817608;76;395033;-74
2021/03/07 19:53:49;;;;;;;6.20;4.10;;;;;;;2.59;76.20;99428.84;3818140;76;396141;-76
2021/03/07 19:59:10;;;;;;;3.10;2.37;;;;;;;2.50;76.10;99426.79;3818565;75;396108;-75
2021/03/07 20:04:31;;;;;;;2.37;2.17;;;;;;;2.42;76.50;99436.41;3818899;76;396356;-74
2021/03/07 20:09:52;;;;;;;2.00;1.80;;;;;;;2.35;76.80;99437.53;3817380;76;396288;-74
2021/03/07 20:15:16;;;;;;;8.70;3.50;;;;;;;2.23;77.58;99442.14;3819492;74;396378;-75
2021/03/07 20:20:37;;;;;;;3.17;2.90;;;;;;;2.10;78.38;99442.67;3816162;76;396087;-75
2021/03/07 20:25:58;;;;;;;2.63;2.10;;;;;;;2.01;78.45;99441.97;3818745;74;396127;-74
2021/03/07 20:31:20;;;;;;;3.93;3.43;;;;;;;1.95;78.88;99445.21;3817395;76;396155;-74
2021/03/07 20:36:41;;;;;;;2.23;1.57;;;;;;;1.79;80.22;99444.25;3817838;76;390036;-75
2021/03/07 20:42:02;;;;;;;6.43;3.30;;;;;;;1.74;81.44;99445.82;3819244;74;396087;-74
2021/03/07 20:47:23;;;;;;;2.63;2.10;;;;;;;1.67;82.24;99446.34;3817401;76;396091;-74
2021/03/07 20:52:44;;;;;;;2.70;1.30;;;;;;;1.70;80.83;99455.73;3817945;76;394213;-75
2021/03/07 20:58:07;;;;;;;3.17;1.70;;;;;;;1.58;80.95;99461.11;3830621;75;393996;-74
2021/03/07 21:03:28;;;;;;;1.63;1.53;;;;;;;1.48;80.66;99453.38;3830519;75;392971;-74
2021/03/07 21:08:49;;;;;;;2.10;1.90;;;;;;;1.38;80.20;99458.40;3830550;76;393973;-75
2021/03/07 21:14:11;;;;;;;2.20;1.33;;;;;;;1.29;79.43;99467.15;3831408;76;383851;-75
2021/03/07 21:19:34;;;;;;;1.40;0.93;;;;;;;1.19;79.52;99468.88;3831332;75;387688;-75
2021/03/07 21:24:55;;;;;;;1.60;1.50;;;;;;;1.23;82.72;99484.73;3830737;76;396051;-74
2021/03/07 21:30:17;;;;;;;2.43;2.23;;;;;;;1.05;83.62;99488.08;3832462;74;391913;-74
2021/03/07 21:35:38;;;;;;;2.90;2.70;;;;;;;0.76;86.04;99489.20;3830528;76;396084;-74
2021/03/07 21:40:59;;;;;;;2.00;1.80;;;;;;;0.78;87.01;99491.27;3830589;76;396078;-74
2021/03/07 21:46:20;;;;;;;3.83;2.70;;;;;;;0.49;87.66;99486.91;3830278;75;396071;-74
2021/03/07 21:51:42;;;;;;;4.33;3.97;;;;;;;0.57;88.23;99486.89;3832573;74;392166;-74
2021/03/07 21:57:03;;;;;;;2.17;1.50;;;;;;;0.35;89.99;99482.27;3830822;75;396092;-74
2021/03/07 22:02:25;;;;;;;1.47;1.30;;;;;;;0.21;89.17;99485.73;3813951;76;395035;-74
2021/03/07 22:07:48;;;;;;;1.00;0.87;;;;;;;0.16;90.24;99487.27;3806726;76;389826;-75
2021/03/07 22:13:08;;;;;;;6.90;1.87;;;;;;;0.12;89.20;99490.36;3806953;76;394048;-74
2021/03/07 22:18:29;;;;;;;2.53;2.33;;;;;;;0.15;88.01;99493.78;3807198;76;390028;-74
2021/03/07 22:23:50;;;;;;;3.77;2.37;;;;;;;0.11;88.02;99490.93;3806797;76;396415;-73
2021/03/07 22:29:12;;;;;;;4.13;1.43;;;;;;;0.14;87.98;99494.89;3806966;76;393973;-74
2021/03/07 22:34:33;;;;;;;2.33;2.13;;;;;;;0.26;88.64;99488.25;3807509;76;383797;-74
2021/03/07 22:39:54;;;;;;;1.17;1.07;;;;;;;0.23;88.97;99492.97;3807326;76;389873;-74
2021/03/07 22:45:16;;;;;;;1.47;1.37;;;;;;;-0.10;89.28;99495.16;3809027;74;396335;-74
2021/03/07 22:50:37;;;;;;;3.63;2.07;;;;;;;-0.09;91.92;99499.45;3806749;76;396040;-74
2021/03/07 22:55:58;;;;;;;4.43;1.33;;;;;;;-0.04;91.71;99496.03;3807200;76;388029;-74
2021/03/07 23:01:19;;;;;;;5.40;3.00;;;;;;;-0.24;92.01;99489.91;3815141;74;386743;-74
2021/03/07 23:06:41;;;;;;;3.17;2.87;;;;;;;-0.43;93.79;99496.75;3816906;76;395029;-74
2021/03/07 23:12:02;;;;;;;2.10;2.00;;;;;;;-0.55;93.55;99496.03;3814201;74;394191;-75
2021/03/07 23:17:24;;;;;;;4.90;1.70;;;;;;;-0.63;91.62;99495.47;3812668;76;395042;-74
2021/03/07 23:22:45;;;;;;;3.93;2.30;;;;;;;-0.67;94.09;99492.36;3812552;77;396309;-74
2021/03/07 23:28:07;;;;;;;2.47;2.07;;;;;;;-0.56;96.71;99480.15;3812861;76;396108;-74
2021/03/07 23:33:28;;;;;;;2.20;1.67;;;;;;;-0.59;99.93;99488.34;3812876;76;383781;-74
2021/03/07 23:38:52;;;;;;;3.30;1.60;;;;;;;-0.73;100.00;99480.91;3813044;76;387801;-74
2021/03/07 23:44:12;;;;;;;3.03;2.10;;;;;;;-0.72;100.00;99480.38;3812730;76;396088;-74
2021/03/07 23:49:33;;;;;;;3.17;1.50;;;;;;;-0.83;100.00;99485.05;3812880;76;396301;-74
2021/03/07 23:54:54;;;;;;;8.73;3.70;;;;;;;-1.02;100.00;99478.58;3813001;76;391945;-74
